createdAt,value
2022-09-11T00:02:17.481Z,101779.62
2022-09-11T00:04:47.805Z,101784.59
2022-09-11T00:07:17.539Z,101788.30
2022-09-11T00:09:47.296Z,101790.66
2022-09-11T00:12:17.252Z,101785.99
2022-09-11T00:14:47.007Z,101788.38
2022-09-11T00:17:17.224Z,101790.97
2022-09-11T00:19:46.959Z,101794.96
2022-09-11T00:22:16.396Z,101801.00
2022-09-11T00:24:46.154Z,101790.63
2022-09-11T00:27:16.171Z,101796.27
2022-09-11T00:29:46.189Z,101795.72
2022-09-11T00:32:15.940Z,101802.86
2022-09-11T00:34:46.747Z,101797.58
2022-09-11T00:37:16.493Z,101795.45
2022-09-11T00:39:47.073Z,101802.85
2022-09-11T00:42:16.808Z,101796.52
2022-09-11T00:44:52.301Z,101796.52
2022-09-11T00:47:22.424Z,101797.51
2022-09-11T00:49:55.211Z,101792.84
2022-09-11T00:52:34.230Z,101797.59
2022-09-11T00:55:15.851Z,101797.89
2022-09-11T00:57:51.704Z,101800.79
2022-09-11T01:00:22.682Z,101803.55
2022-09-11T01:02:55.114Z,101806.73
2022-09-11T01:05:27.078Z,101804.60
2022-09-11T01:07:57.573Z,101800.92
2022-09-11T01:10:35.856Z,101802.47
2022-09-11T01:13:29.592Z,101802.43
2022-09-11T01:16:14.191Z,101808.11
2022-09-11T01:19:08.890Z,101781.59
2022-09-11T01:22:04.175Z,101781.59
2022-09-11T01:24:45.698Z,101803.47
2022-09-11T01:27:48.153Z,101802.93
2022-09-11T01:30:21.057Z,101804.09
2022-09-11T01:33:02.350Z,101806.43
2022-09-11T01:35:46.656Z,101806.77
2022-09-11T01:38:25.071Z,101801.27
2022-09-11T01:40:58.070Z,101815.64
2022-09-11T01:43:30.740Z,101812.36
2022-09-11T01:46:05.437Z,101810.55
2022-09-11T01:48:44.221Z,101819.14
2022-09-11T01:51:22.435Z,101822.73
2022-09-11T01:53:54.116Z,101826.84
2022-09-11T01:56:26.896Z,101829.48
2022-09-11T01:59:00.065Z,101833.30
2022-09-11T02:01:34.105Z,101834.34
2022-09-11T02:04:16.503Z,101834.55
2022-09-11T02:06:53.437Z,101835.70
2022-09-11T02:09:27.997Z,101838.34
2022-09-11T02:12:01.745Z,101836.45
2022-09-11T02:14:40.738Z,101836.56
2022-09-11T02:17:36.452Z,101836.34
2022-09-11T02:20:09.538Z,101833.47
2022-09-11T02:22:40.291Z,101832.86
2022-09-11T02:25:10.130Z,101832.43
2022-09-11T02:27:40.997Z,101834.97
2022-09-11T02:30:14.332Z,101838.89
2022-09-11T02:32:45.487Z,101842.34
2022-09-11T02:35:16.426Z,101841.83
2022-09-11T02:37:51.197Z,101841.28
2022-09-11T02:40:39.449Z,101845.93
2022-09-11T02:43:22.267Z,101845.93
2022-09-11T02:46:03.609Z,101853.64
2022-09-11T02:49:07.667Z,101854.46
2022-09-11T02:52:05.895Z,101854.89
2022-09-11T02:54:56.786Z,101848.97
2022-09-11T02:57:35.623Z,101848.97
2022-09-11T03:00:09.799Z,101858.38
2022-09-11T03:02:43.145Z,101863.55
2022-09-11T03:05:13.454Z,101866.69
2022-09-11T03:07:43.642Z,101862.75
2022-09-11T03:10:14.861Z,101867.22
2022-09-11T03:12:44.601Z,101866.51
2022-09-11T03:15:16.116Z,101867.64
2022-09-11T03:17:46.290Z,101867.93
2022-09-11T03:20:16.887Z,101864.13
2022-09-11T03:22:48.878Z,101868.59
2022-09-11T03:25:19.035Z,101868.38
2022-09-11T03:27:48.960Z,101871.97
2022-09-11T03:30:18.762Z,101875.67
2022-09-11T03:32:50.480Z,101880.11
2022-09-11T03:35:20.860Z,101877.02
2022-09-11T03:37:50.615Z,101876.69
2022-09-11T03:40:20.522Z,101871.63
2022-09-11T03:42:50.327Z,101869.59
2022-09-11T03:45:21.387Z,101875.81
2022-09-11T03:47:51.583Z,101873.42
2022-09-11T03:50:21.402Z,101872.02
2022-09-11T03:52:51.668Z,101871.52
2022-09-11T03:55:22.977Z,101872.47
2022-09-11T03:57:52.863Z,101882.75
2022-09-11T04:00:22.942Z,101883.00
2022-09-11T04:02:55.556Z,101880.70
2022-09-11T04:05:27.234Z,101879.44
2022-09-11T04:07:57.051Z,101883.25
2022-09-11T04:10:26.565Z,101887.57
2022-09-11T04:12:57.421Z,101885.20
2022-09-11T04:15:27.242Z,101882.78
2022-09-11T04:18:00.065Z,101890.48
2022-09-11T04:20:29.172Z,101896.29
2022-09-11T04:22:59.088Z,101888.16
2022-09-11T04:25:28.933Z,101888.16
2022-09-11T04:27:58.687Z,101884.89
2022-09-11T04:30:28.437Z,101888.84
2022-09-11T04:32:58.910Z,101893.45
2022-09-11T04:35:29.721Z,101889.02
2022-09-11T04:37:59.765Z,101887.15
2022-09-11T04:40:31.289Z,101880.28
2022-09-11T04:43:01.581Z,101880.04
2022-09-11T04:45:33.146Z,101887.67
2022-09-11T04:48:03.707Z,101888.52
2022-09-11T04:50:33.629Z,101887.47
2022-09-11T04:53:23.151Z,101888.70
2022-09-11T04:55:52.968Z,101889.75
2022-09-11T04:58:22.728Z,101892.60
2022-09-11T05:00:53.400Z,101897.14
2022-09-11T05:03:23.252Z,101904.85
2022-09-11T05:05:53.377Z,101899.56
2022-09-11T05:08:26.645Z,101899.56
2022-09-11T05:10:57.514Z,101907.23
2022-09-11T05:13:36.074Z,101905.19
2022-09-11T05:16:09.303Z,101903.16
2022-09-11T05:18:41.020Z,101909.91
2022-09-11T05:21:16.587Z,101910.86
2022-09-11T05:23:52.076Z,101913.42
2022-09-11T05:26:24.632Z,101916.35
2022-09-11T05:29:00.935Z,101921.64
2022-09-11T05:31:34.913Z,101916.82
2022-09-11T05:34:06.745Z,101927.27
2022-09-11T05:36:36.866Z,101923.47
2022-09-11T05:39:06.973Z,101935.09
2022-09-11T05:41:36.887Z,101938.47
2022-09-11T05:44:06.752Z,101946.17
2022-09-11T05:46:37.681Z,101946.23
2022-09-11T05:49:08.537Z,101946.23
2022-09-11T05:51:39.811Z,101951.07
2022-09-11T05:54:09.732Z,101947.40
2022-09-11T05:56:39.602Z,101947.40
2022-09-11T05:59:14.689Z,101959.78
2022-09-11T06:01:47.447Z,101962.55
2022-09-11T06:04:18.921Z,101969.98
2022-09-11T06:06:50.001Z,101957.19
2022-09-11T06:09:20.183Z,101957.19
2022-09-11T06:11:50.914Z,101974.31
2022-09-11T06:14:21.406Z,101978.94
2022-09-11T06:16:51.879Z,101979.80
2022-09-11T06:19:21.801Z,101980.84
2022-09-11T06:21:51.967Z,101978.53
2022-09-11T06:24:23.423Z,101981.64
2022-09-11T06:26:53.552Z,101990.30
2022-09-11T06:29:23.895Z,101990.50
2022-09-11T06:31:54.080Z,101989.41
2022-09-11T06:34:25.327Z,101986.55
2022-09-11T06:36:56.023Z,101986.55
2022-09-11T06:39:26.536Z,101988.56
2022-09-11T06:41:56.699Z,101996.09
2022-09-11T06:44:28.152Z,101988.38
2022-09-11T06:47:00.068Z,101995.98
2022-09-11T06:49:30.347Z,101993.11
2022-09-11T06:52:14.839Z,102003.27
2022-09-11T06:54:46.290Z,101997.74
2022-09-11T06:57:17.208Z,101995.42
2022-09-11T06:59:47.103Z,101995.11
2022-09-11T07:02:18.162Z,102002.48
2022-09-11T07:04:48.696Z,102007.55
2022-09-11T07:07:19.510Z,102005.77
2022-09-11T07:09:49.918Z,102003.60
2022-09-11T07:12:21.473Z,102002.45
2022-09-11T07:14:51.704Z,102005.33
2022-09-11T07:17:21.521Z,102006.05
2022-09-11T07:19:52.711Z,102006.80
2022-09-11T07:22:22.582Z,101994.34
2022-09-11T07:24:55.527Z,102004.67
2022-09-11T07:27:25.418Z,102001.38
2022-09-11T07:29:55.819Z,102003.80
2022-09-11T07:32:27.027Z,102001.88
2022-09-11T07:34:56.917Z,102004.16
2022-09-11T07:37:26.649Z,101992.81
2022-09-11T07:39:58.099Z,102005.50
2022-09-11T07:42:29.880Z,102003.34
2022-09-11T07:44:59.702Z,102006.56
2022-09-11T07:47:29.353Z,102014.13
2022-09-11T07:49:59.571Z,102017.03
2022-09-11T07:52:29.350Z,102017.42
2022-09-11T07:55:01.304Z,102021.14
2022-09-11T07:57:32.484Z,102021.94
2022-09-11T08:00:04.924Z,102024.42
2022-09-11T08:02:37.164Z,102036.59
2022-09-11T08:05:07.915Z,102036.23
2022-09-11T08:07:38.207Z,102034.59
2022-09-11T08:10:26.718Z,102040.31
2022-09-11T08:12:42.961Z,102036.25
2022-09-11T08:15:14.052Z,102041.56
2022-09-11T08:17:44.161Z,102038.86
2022-09-11T08:20:14.048Z,102032.86
2022-09-11T08:22:44.088Z,102028.05
2022-09-11T08:25:13.808Z,102033.80
2022-09-11T08:27:43.860Z,102036.77
2022-09-11T08:30:15.317Z,102050.01
2022-09-11T08:32:45.516Z,102048.00
2022-09-11T08:35:15.498Z,102054.42
2022-09-11T08:37:45.550Z,102040.55
2022-09-11T08:40:15.789Z,102048.85
2022-09-11T08:42:47.302Z,102046.52
2022-09-11T08:45:20.758Z,102049.34
2022-09-11T08:47:56.950Z,102045.62
2022-09-11T08:50:30.072Z,102045.62
2022-09-11T08:53:01.387Z,102054.53
2022-09-11T08:55:41.361Z,102058.22
2022-09-11T08:58:39.018Z,102055.22
2022-09-11T09:01:09.299Z,102054.64
2022-09-11T09:03:59.947Z,102055.52
2022-09-11T09:06:53.930Z,102052.94
2022-09-11T09:09:44.463Z,102046.02
2022-09-11T09:12:20.784Z,102054.39
2022-09-11T09:15:04.821Z,102048.81
2022-09-11T09:17:37.805Z,102057.48
2022-09-11T09:20:23.149Z,102053.17
2022-09-11T09:22:55.992Z,102061.43
2022-09-11T09:25:27.611Z,102056.36
2022-09-11T09:28:10.023Z,102061.47
2022-09-11T09:31:00.682Z,102060.63
2022-09-11T09:33:37.608Z,102060.86
2022-09-11T09:36:17.378Z,102066.59
2022-09-11T09:38:48.155Z,102059.36
2022-09-11T09:41:30.364Z,102065.04
2022-09-11T09:44:19.518Z,102071.22
2022-09-11T09:46:51.208Z,102064.72
2022-09-11T09:49:35.907Z,102068.91
2022-09-11T09:52:20.296Z,102066.63
2022-09-11T09:55:04.735Z,102071.44
2022-09-11T09:57:37.543Z,102065.23
2022-09-11T10:00:11.840Z,102078.47
2022-09-11T10:02:53.253Z,102069.04
2022-09-11T10:05:35.059Z,102068.98
2022-09-11T10:08:10.906Z,102060.22
2022-09-11T10:10:41.911Z,102066.59
2022-09-11T10:13:22.001Z,102066.59
2022-09-11T10:15:54.308Z,102074.03
2022-09-11T10:18:40.085Z,102064.58
2022-09-11T10:21:18.749Z,102069.86
2022-09-11T10:24:02.448Z,102075.11
2022-09-11T10:26:47.756Z,102072.59
2022-09-11T10:29:20.984Z,102071.55
2022-09-11T10:31:56.439Z,102078.78
2022-09-11T10:34:29.205Z,102071.64
2022-09-11T10:37:05.073Z,102077.36
2022-09-11T10:39:37.523Z,102074.61
2022-09-11T10:42:16.728Z,102073.20
2022-09-11T10:44:48.076Z,102068.59
2022-09-11T10:47:29.700Z,102065.75
2022-09-11T10:50:20.438Z,102070.45
2022-09-11T10:53:01.810Z,102060.67
2022-09-11T10:55:44.869Z,102060.67
2022-09-11T10:58:26.809Z,102059.70
2022-09-11T11:00:56.668Z,102057.83
2022-09-11T11:03:28.992Z,102056.41
2022-09-11T11:06:34.940Z,102060.97
2022-09-11T11:09:31.239Z,102054.22
2022-09-11T11:12:12.641Z,102051.50
2022-09-11T11:14:51.262Z,102054.00
2022-09-11T11:17:35.985Z,102050.83
2022-09-11T11:20:14.156Z,102047.61
2022-09-11T11:23:01.272Z,102047.34
2022-09-11T11:25:40.939Z,102038.80
2022-09-11T11:28:14.454Z,102038.80
2022-09-11T11:31:03.449Z,102034.23
2022-09-11T11:33:53.813Z,102034.23
2022-09-11T11:36:32.289Z,102046.93
2022-09-11T11:39:19.999Z,102050.84
2022-09-11T11:41:52.790Z,102057.86
2022-09-11T11:44:40.470Z,102056.13
2022-09-11T11:47:11.350Z,102054.70
2022-09-11T11:49:52.882Z,102052.34
2022-09-11T11:52:37.144Z,102048.28
2022-09-11T11:55:26.169Z,102041.23
2022-09-11T11:58:13.953Z,102041.12
2022-09-11T12:00:46.742Z,102039.56
2022-09-11T12:03:37.493Z,102042.57
2022-09-11T12:06:08.547Z,102021.06
2022-09-11T12:08:46.210Z,102021.06
2022-09-11T12:11:19.222Z,102035.89
2022-09-11T12:13:49.493Z,102033.63
2022-09-11T12:16:34.760Z,102031.92
2022-09-11T12:19:19.828Z,102025.56
2022-09-11T12:21:58.504Z,102025.56
2022-09-11T12:24:47.531Z,102020.28
2022-09-11T12:27:39.266Z,102026.52
2022-09-11T12:30:12.017Z,102023.63
2022-09-11T12:32:52.461Z,102021.20
2022-09-11T12:35:38.069Z,102014.77
2022-09-11T12:38:12.468Z,102007.50
2022-09-11T12:40:57.257Z,102014.48
2022-09-11T12:43:38.395Z,102009.94
2022-09-11T12:46:10.949Z,102008.50
2022-09-11T12:49:00.233Z,102003.94
2022-09-11T12:51:24.005Z,102004.31
2022-09-11T12:53:58.645Z,101996.89
2022-09-11T12:56:31.242Z,101995.49
2022-09-11T12:59:04.735Z,101995.78
2022-09-11T13:01:40.227Z,101987.86
2022-09-11T13:04:13.658Z,101989.02
2022-09-11T13:06:56.105Z,101989.02
2022-09-11T13:09:37.699Z,101984.02
2022-09-11T13:12:26.405Z,101979.08
2022-09-11T13:14:59.241Z,101985.63
2022-09-11T13:17:31.136Z,101978.69
2022-09-11T13:20:09.852Z,101985.00
2022-09-11T13:22:39.570Z,101977.60
2022-09-11T13:25:19.845Z,101978.70
2022-09-11T13:27:51.508Z,101974.47
2022-09-11T13:30:23.953Z,101971.89
2022-09-11T13:33:08.263Z,101965.58
2022-09-11T13:35:41.417Z,101969.15
2022-09-11T13:38:17.002Z,101967.13
2022-09-11T13:40:52.277Z,101967.52
2022-09-11T13:43:29.253Z,101964.17
2022-09-11T13:46:18.590Z,101946.75
2022-09-11T13:48:50.870Z,101946.75
2022-09-11T13:51:29.598Z,101959.34
2022-09-11T13:54:11.677Z,101959.37
2022-09-11T13:56:48.256Z,101953.26
2022-09-11T13:59:46.110Z,101951.05
2022-09-11T14:02:27.865Z,101950.98
2022-09-11T14:05:09.561Z,101943.14
2022-09-11T14:08:08.651Z,101939.96
2022-09-11T14:10:47.317Z,101930.84
2022-09-11T14:13:37.856Z,101923.58
2022-09-11T14:16:10.924Z,101922.24
2022-09-11T14:19:04.343Z,101918.34
2022-09-11T14:21:36.451Z,101919.39
2022-09-11T14:24:09.728Z,101914.71
2022-09-11T14:26:42.989Z,101907.73
2022-09-11T14:32:36.714Z,101914.66
2022-09-11T14:35:10.547Z,101914.17
2022-09-11T14:37:45.849Z,101910.31
2022-09-11T14:40:20.183Z,101910.03
2022-09-11T14:42:50.120Z,101908.39
2022-09-11T14:45:22.891Z,101910.03
2022-09-11T14:47:53.338Z,101902.23
2022-09-11T14:50:24.490Z,101903.58
2022-09-11T14:52:53.946Z,101886.88
2022-09-11T14:55:23.750Z,101886.88
2022-09-11T14:57:53.488Z,101904.34
2022-09-11T15:00:23.292Z,101913.53
2022-09-11T15:02:53.792Z,101908.52
2022-09-11T15:05:24.544Z,101910.05
2022-09-11T15:07:54.281Z,101899.11
2022-09-11T15:10:23.771Z,101896.34
2022-09-11T15:12:54.980Z,101898.24
2022-09-11T15:15:27.413Z,101898.24
2022-09-11T15:17:57.453Z,101891.99
2022-09-11T15:20:27.654Z,101897.33
2022-09-11T15:22:57.647Z,101895.26
2022-09-11T15:25:27.538Z,101897.30
2022-09-11T15:27:57.044Z,101894.42
2022-09-11T15:30:27.778Z,101888.24
2022-09-11T15:32:57.575Z,101888.28
2022-09-11T15:35:32.651Z,101883.16
2022-09-11T15:37:59.918Z,101879.80
2022-09-11T15:40:29.513Z,101865.75
2022-09-11T15:42:59.339Z,101887.59
2022-09-11T15:45:29.108Z,101887.59
2022-09-11T15:48:02.814Z,101866.36
2022-09-11T15:50:32.473Z,101866.36
2022-09-11T15:53:02.452Z,101884.76
2022-09-11T15:55:32.176Z,101882.55
2022-09-11T15:58:02.089Z,101864.14
2022-09-11T16:00:31.989Z,101864.14
2022-09-11T16:03:02.104Z,101859.94
2022-09-11T16:05:32.245Z,101880.34
2022-09-11T16:08:02.269Z,101880.34
2022-09-11T16:10:33.579Z,101880.36
2022-09-11T16:13:03.882Z,101874.20
2022-09-11T16:15:35.446Z,101856.23
2022-09-11T16:18:09.668Z,101856.23
2022-09-11T16:20:43.831Z,101875.30
2022-09-11T16:23:13.681Z,101874.69
2022-09-11T16:25:44.583Z,101872.72
2022-09-11T16:28:14.076Z,101870.72
2022-09-11T16:30:46.660Z,101870.48
2022-09-11T16:33:14.937Z,101870.48
2022-09-11T16:35:45.204Z,101866.63
2022-09-11T16:38:14.951Z,101864.58
2022-09-11T16:40:44.679Z,101862.88
2022-09-11T16:43:21.391Z,101854.14
2022-09-11T16:45:52.663Z,101860.55
2022-09-11T16:48:24.048Z,101853.61
2022-09-11T16:50:55.213Z,101853.23
2022-09-11T16:53:27.283Z,101850.87
2022-09-11T16:55:57.201Z,101855.98
2022-09-11T16:58:26.669Z,101842.83
2022-09-11T17:00:56.548Z,101843.95
2022-09-11T17:03:26.587Z,101842.46
2022-09-11T17:05:56.787Z,101840.84
2022-09-11T17:08:26.645Z,101841.33
2022-09-11T17:10:59.235Z,101843.30
2022-09-11T17:13:29.320Z,101840.96
2022-09-11T17:16:09.943Z,101846.81
2022-09-11T17:18:40.153Z,101841.44
2022-09-11T17:21:11.836Z,101843.92
2022-09-11T17:23:41.746Z,101842.38
2022-09-11T17:26:16.625Z,101837.92
2022-09-11T17:28:48.257Z,101835.09
2022-09-11T17:31:19.519Z,101826.77
2022-09-11T17:33:50.471Z,101826.77
2022-09-11T17:36:22.337Z,101841.25
2022-09-11T17:38:52.903Z,101840.10
2022-09-11T17:41:23.021Z,101842.81
2022-09-11T17:43:53.122Z,101840.73
2022-09-11T17:46:24.095Z,101837.42
2022-09-11T17:48:53.854Z,101837.95
2022-09-11T17:51:26.311Z,101837.75
2022-09-11T17:53:58.570Z,101838.41
2022-09-11T17:56:33.178Z,101833.98
2022-09-11T17:59:03.179Z,101840.58
2022-09-11T18:01:33.002Z,101837.18
2022-09-11T18:04:02.876Z,101842.62
2022-09-11T18:06:36.895Z,101844.13
2022-09-11T18:09:19.623Z,101841.20
2022-09-11T18:11:53.212Z,101843.02
2022-09-11T18:14:24.191Z,101848.06
2022-09-11T18:16:53.937Z,101842.67
2022-09-11T18:19:24.215Z,101842.67
2022-09-11T18:21:53.969Z,101829.27
2022-09-11T18:24:24.551Z,101829.27
2022-09-11T18:27:00.522Z,101841.97
2022-09-11T18:29:27.347Z,101842.92
2022-09-11T18:31:57.156Z,101846.45
2022-09-11T18:34:28.342Z,101845.47
2022-09-11T18:36:59.888Z,101842.73
2022-09-11T18:39:29.465Z,101852.20
2022-09-11T18:42:00.072Z,101842.77
2022-09-11T18:44:30.656Z,101844.70
2022-09-11T18:47:01.169Z,101839.75
2022-09-11T18:49:30.910Z,101847.77
2022-09-11T18:52:00.699Z,101840.34
2022-09-11T18:54:30.905Z,101840.34
2022-09-11T18:57:00.649Z,101836.98
2022-09-11T18:59:30.129Z,101839.04
2022-09-11T19:02:00.717Z,101832.53
2022-09-11T19:04:30.666Z,101836.98
2022-09-11T19:07:00.570Z,101836.77
2022-09-11T19:09:30.319Z,101842.14
2022-09-11T19:12:00.846Z,101851.97
2022-09-11T19:14:30.982Z,101844.63
2022-09-11T19:17:00.735Z,101847.63
2022-09-11T19:19:30.486Z,101846.36
2022-09-11T19:22:00.453Z,101848.00
2022-09-11T19:24:30.495Z,101843.47
2022-09-11T19:27:00.420Z,101848.19
2022-09-11T19:29:30.239Z,101848.53
2022-09-11T19:32:00.885Z,101850.16
2022-09-11T19:34:34.055Z,101852.03
2022-09-11T19:37:02.855Z,101854.16
2022-09-11T19:39:32.676Z,101854.16
2022-09-11T19:42:02.886Z,101855.15
2022-09-11T19:44:34.264Z,101859.70
2022-09-11T19:47:04.434Z,101859.70
2022-09-11T19:49:34.255Z,101863.98
2022-09-11T19:52:08.025Z,101866.97
2022-09-11T19:54:37.956Z,101856.87
2022-09-11T19:57:08.258Z,101858.67
2022-09-11T19:59:38.272Z,101862.52
2022-09-11T20:02:11.979Z,101855.41
2022-09-11T20:04:41.812Z,101861.68
2022-09-11T20:07:11.644Z,101862.31
2022-09-11T20:09:42.695Z,101861.41
2022-09-11T20:12:13.313Z,101857.89
2022-09-11T20:14:43.063Z,101856.81
2022-09-11T20:17:12.984Z,101861.17
2022-09-11T20:19:44.377Z,101864.27
2022-09-11T20:22:14.115Z,101844.88
2022-09-11T20:24:43.854Z,101865.53
2022-09-11T20:27:13.607Z,101864.69
2022-09-11T20:29:43.478Z,101859.78
2022-09-11T20:32:15.046Z,101860.09
2022-09-11T20:34:44.813Z,101858.49
2022-09-11T20:37:14.552Z,101867.92
2022-09-11T20:39:44.320Z,101857.35
2022-09-11T20:42:14.126Z,101853.89
2022-09-11T20:44:45.270Z,101853.04
2022-09-11T20:47:15.183Z,101844.84
2022-09-11T20:49:44.934Z,101846.31
2022-09-11T20:52:15.339Z,101852.50
2022-09-11T20:54:45.266Z,101838.93
2022-09-11T20:57:15.019Z,101839.11
2022-09-11T20:59:44.751Z,101835.94
2022-09-11T21:02:14.843Z,101839.64
2022-09-11T21:04:45.800Z,101838.16
2022-09-11T21:07:15.632Z,101833.79
2022-09-11T21:09:46.117Z,101829.88
2022-09-11T21:12:15.580Z,101835.70
2022-09-11T21:14:45.704Z,101834.33
2022-09-11T21:17:15.533Z,101832.94
2022-09-11T21:19:45.275Z,101836.23
2022-09-11T21:22:15.032Z,101829.87
2022-09-11T21:24:44.769Z,101828.12
2022-09-11T21:27:14.513Z,101830.03
2022-09-11T21:29:44.254Z,101829.73
2022-09-11T21:32:13.918Z,101827.30
2022-09-11T21:34:43.687Z,101831.06
2022-09-11T21:37:13.624Z,101834.48
2022-09-11T21:39:43.111Z,101823.70
2022-09-11T21:42:12.528Z,101833.57
2022-09-11T21:44:42.256Z,101826.52
2022-09-11T21:47:12.006Z,101826.91
2022-09-11T21:49:41.763Z,101832.75
2022-09-11T21:52:11.983Z,101831.39
2022-09-11T21:54:41.730Z,101830.22
2022-09-11T21:57:11.762Z,101830.48
2022-09-11T21:59:41.507Z,101826.84
2022-09-11T22:02:12.054Z,101830.03
2022-09-11T22:04:41.819Z,101837.52
2022-09-11T22:07:12.213Z,101837.33
2022-09-11T22:09:42.623Z,101840.36
2022-09-11T22:12:12.312Z,101845.64
2022-09-11T22:14:43.700Z,101842.39
2022-09-11T22:17:13.757Z,101847.70
2022-09-11T22:19:46.208Z,101847.97
2022-09-11T22:22:16.028Z,101844.64
2022-09-11T22:24:45.848Z,101838.45
2022-09-11T22:27:15.296Z,101832.44
2022-09-11T22:29:47.149Z,101838.44
2022-09-11T22:32:17.162Z,101836.06
2022-09-11T22:34:46.907Z,101819.16
2022-09-11T22:37:16.721Z,101819.16
2022-09-11T22:39:47.002Z,101834.56
2022-09-11T22:42:16.940Z,101830.13
2022-09-11T22:44:46.680Z,101839.73
2022-09-11T22:47:16.702Z,101834.14
2022-09-11T22:49:46.754Z,101833.41
2022-09-11T22:52:16.486Z,101832.72
2022-09-11T22:54:47.479Z,101830.44
2022-09-11T22:57:17.287Z,101830.27
2022-09-11T22:59:47.164Z,101828.28
2022-09-11T23:02:16.977Z,101830.36
2022-09-11T23:04:48.374Z,101810.30
2022-09-11T23:07:18.279Z,101810.30
2022-09-11T23:09:48.036Z,101827.26
2022-09-11T23:12:17.864Z,101826.56
2022-09-11T23:14:47.598Z,101825.24
2022-09-11T23:17:17.679Z,101820.24
2022-09-11T23:19:48.165Z,101818.97
2022-09-11T23:22:17.606Z,101815.86
2022-09-11T23:24:47.686Z,101819.28
2022-09-11T23:27:17.736Z,101813.05
2022-09-11T23:29:47.541Z,101813.69
2022-09-11T23:32:17.275Z,101802.80
2022-09-11T23:34:47.022Z,101810.35
2022-09-11T23:37:16.755Z,101812.94
2022-09-11T23:39:46.872Z,101815.16
2022-09-11T23:42:16.250Z,101814.22
2022-09-11T23:44:46.027Z,101811.11
2022-09-11T23:47:15.830Z,101806.97
2022-09-11T23:49:45.595Z,101813.50
2022-09-11T23:52:15.637Z,101807.23
2022-09-11T23:54:45.388Z,101809.67
2022-09-11T23:57:15.118Z,101806.95
2022-09-11T23:59:44.864Z,101814.03
